sensor_id;sensor_type;location;lat;lon;timestamp;temperature;humidity
21331;DHT22;10824;51.632;4.950;2023-03-23T00:00:54;12.20;99.90
21331;DHT22;10824;51.632;4.950;2023-03-23T00:03:21;12.10;99.90
21331;DHT22;10824;51.632;4.950;2023-03-23T00:05:48;12.10;99.90
21331;DHT22;10824;51.632;4.950;2023-03-23T00:08:18;12.10;99.90
21331;DHT22;10824;51.632;4.950;2023-03-23T00:10:50;12.10;99.90
21331;DHT22;10824;51.632;4.950;2023-03-23T00:13:26;12.10;99.90
21331;DHT22;10824;51.632;4.950;2023-03-23T00:15:53;12.10;99.90
21331;DHT22;10824;51.632;4.950;2023-03-23T00:18:20;12.10;99.90
21331;DHT22;10824;51.632;4.950;2023-03-23T00:20:55;12.10;99.90
21331;DHT22;10824;51.632;4.950;2023-03-23T00:23:25;12.20;99.90
21331;DHT22;10824;51.632;4.950;2023-03-23T00:25:54;12.10;99.90
21331;DHT22;10824;51.632;4.950;2023-03-23T00:28:24;12.10;99.90
21331;DHT22;10824;51.632;4.950;2023-03-23T00:31:04;12.00;99.90
21331;DHT22;10824;51.632;4.950;2023-03-23T00:33:36;12.00;99.90
21331;DHT22;10824;51.632;4.950;2023-03-23T00:36:10;11.90;99.90
21331;DHT22;10824;51.632;4.950;2023-03-23T00:38:38;12.00;99.90
21331;DHT22;10824;51.632;4.950;2023-03-23T00:41:05;12.00;99.90
21331;DHT22;10824;51.632;4.950;2023-03-23T00:43:32;11.90;99.90
21331;DHT22;10824;51.632;4.950;2023-03-23T00:46:02;12.00;99.90
21331;DHT22;10824;51.632;4.950;2023-03-23T00:48:35;11.90;99.90
21331;DHT22;10824;51.632;4.950;2023-03-23T00:51:02;11.90;99.90
21331;DHT22;10824;51.632;4.950;2023-03-23T00:53:34;12.00;99.90
21331;DHT22;10824;51.632;4.950;2023-03-23T00:56:00;11.90;99.90
21331;DHT22;10824;51.632;4.950;2023-03-23T00:58:27;11.90;99.90
21331;DHT22;10824;51.632;4.950;2023-03-23T01:00:53;11.90;99.90
21331;DHT22;10824;51.632;4.950;2023-03-23T01:03:19;11.90;99.90
21331;DHT22;10824;51.632;4.950;2023-03-23T01:05:45;11.90;99.90
21331;DHT22;10824;51.632;4.950;2023-03-23T01:08:17;11.80;99.90
21331;DHT22;10824;51.632;4.950;2023-03-23T01:10:46;11.90;99.90
21331;DHT22;10824;51.632;4.950;2023-03-23T01:13:12;11.80;99.90
21331;DHT22;10824;51.632;4.950;2023-03-23T01:15:39;11.90;99.90
21331;DHT22;10824;51.632;4.950;2023-03-23T01:18:05;12.00;99.90
21331;DHT22;10824;51.632;4.950;2023-03-23T01:20:31;12.00;99.90
21331;DHT22;10824;51.632;4.950;2023-03-23T01:22:58;11.90;99.90
21331;DHT22;10824;51.632;4.950;2023-03-23T01:25:32;12.00;99.90
21331;DHT22;10824;51.632;4.950;2023-03-23T01:27:58;12.00;99.90
21331;DHT22;10824;51.632;4.950;2023-03-23T01:30:24;12.00;99.90
21331;DHT22;10824;51.632;4.950;2023-03-23T01:32:51;12.00;99.90
21331;DHT22;10824;51.632;4.950;2023-03-23T01:35:18;12.00;99.90
21331;DHT22;10824;51.632;4.950;2023-03-23T01:37:45;12.00;99.90
21331;DHT22;10824;51.632;4.950;2023-03-23T01:40:14;12.00;99.90
21331;DHT22;10824;51.632;4.950;2023-03-23T01:42:41;12.00;99.90
21331;DHT22;10824;51.632;4.950;2023-03-23T01:47:47;12.00;99.90
21331;DHT22;10824;51.632;4.950;2023-03-23T01:50:15;12.00;99.90
21331;DHT22;10824;51.632;4.950;2023-03-23T01:52:41;12.10;99.90
21331;DHT22;10824;51.632;4.950;2023-03-23T01:55:08;12.20;99.90
21331;DHT22;10824;51.632;4.950;2023-03-23T01:57:34;12.20;99.90
21331;DHT22;10824;51.632;4.950;2023-03-23T02:00:05;12.20;99.90
21331;DHT22;10824;51.632;4.950;2023-03-23T02:02:45;12.20;99.90
21331;DHT22;10824;51.632;4.950;2023-03-23T02:05:28;12.20;99.90
21331;DHT22;10824;51.632;4.950;2023-03-23T02:07:59;12.20;99.90
21331;DHT22;10824;51.632;4.950;2023-03-23T02:10:31;12.20;99.90
21331;DHT22;10824;51.632;4.950;2023-03-23T02:12:59;12.20;99.90
21331;DHT22;10824;51.632;4.950;2023-03-23T02:15:32;12.20;99.90
21331;DHT22;10824;51.632;4.950;2023-03-23T02:27:00;12.30;99.90
21331;DHT22;10824;51.632;4.950;2023-03-23T02:32:23;12.30;99.90
21331;DHT22;10824;51.632;4.950;2023-03-23T02:35:06;12.40;99.80
21331;DHT22;10824;51.632;4.950;2023-03-23T02:37:42;12.40;99.80
21331;DHT22;10824;51.632;4.950;2023-03-23T02:40:18;12.40;99.90
21331;DHT22;10824;51.632;4.950;2023-03-23T02:42:49;12.40;99.90
21331;DHT22;10824;51.632;4.950;2023-03-23T02:45:16;12.40;99.90
21331;DHT22;10824;51.632;4.950;2023-03-23T02:47:46;12.40;99.90
21331;DHT22;10824;51.632;4.950;2023-03-23T02:50:15;12.40;99.90
21331;DHT22;10824;51.632;4.950;2023-03-23T02:52:44;12.40;99.90
21331;DHT22;10824;51.632;4.950;2023-03-23T02:55:12;12.40;99.90
21331;DHT22;10824;51.632;4.950;2023-03-23T02:57:40;12.40;99.90
21331;DHT22;10824;51.632;4.950;2023-03-23T03:00:14;12.40;99.90
21331;DHT22;10824;51.632;4.950;2023-03-23T03:02:43;12.30;99.90
21331;DHT22;10824;51.632;4.950;2023-03-23T03:05:43;12.40;99.90
21331;DHT22;10824;51.632;4.950;2023-03-23T03:08:24;12.40;99.90
21331;DHT22;10824;51.632;4.950;2023-03-23T03:11:10;12.40;99.90
21331;DHT22;10824;51.632;4.950;2023-03-23T03:13:59;12.40;99.90
21331;DHT22;10824;51.632;4.950;2023-03-23T03:16:33;12.40;99.90
21331;DHT22;10824;51.632;4.950;2023-03-23T03:19:26;12.40;99.40
21331;DHT22;10824;51.632;4.950;2023-03-23T03:21:55;12.40;99.90
21331;DHT22;10824;51.632;4.950;2023-03-23T03:24:32;12.50;98.80
21331;DHT22;10824;51.632;4.950;2023-03-23T03:27:00;12.40;98.90
21331;DHT22;10824;51.632;4.950;2023-03-23T03:29:36;12.40;99.10
21331;DHT22;10824;51.632;4.950;2023-03-23T03:32:05;12.40;98.40
21331;DHT22;10824;51.632;4.950;2023-03-23T03:34:33;12.40;97.10
21331;DHT22;10824;51.632;4.950;2023-03-23T03:37:00;12.50;97.00
21331;DHT22;10824;51.632;4.950;2023-03-23T03:39:27;12.50;97.20
21331;DHT22;10824;51.632;4.950;2023-03-23T03:41:53;12.40;97.00
21331;DHT22;10824;51.632;4.950;2023-03-23T03:44:20;12.40;97.40
21331;DHT22;10824;51.632;4.950;2023-03-23T03:46:46;12.40;96.60
21331;DHT22;10824;51.632;4.950;2023-03-23T03:49:12;12.40;96.50
21331;DHT22;10824;51.632;4.950;2023-03-23T03:51:41;12.40;95.80
21331;DHT22;10824;51.632;4.950;2023-03-23T03:54:12;12.40;95.80
21331;DHT22;10824;51.632;4.950;2023-03-23T03:56:38;12.40;95.10
21331;DHT22;10824;51.632;4.950;2023-03-23T03:59:24;12.40;95.80
21331;DHT22;10824;51.632;4.950;2023-03-23T04:02:15;12.40;94.60
21331;DHT22;10824;51.632;4.950;2023-03-23T04:04:48;12.40;94.90
21331;DHT22;10824;51.632;4.950;2023-03-23T04:07:14;12.40;94.40
21331;DHT22;10824;51.632;4.950;2023-03-23T04:09:45;12.40;92.00
21331;DHT22;10824;51.632;4.950;2023-03-23T04:12:15;12.40;92.10
21331;DHT22;10824;51.632;4.950;2023-03-23T04:14:57;12.50;90.90
21331;DHT22;10824;51.632;4.950;2023-03-23T04:17:31;12.40;92.00
21331;DHT22;10824;51.632;4.950;2023-03-23T04:19:57;12.40;92.30
21331;DHT22;10824;51.632;4.950;2023-03-23T04:22:26;12.40;92.60
21331;DHT22;10824;51.632;4.950;2023-03-23T04:24:58;12.40;92.00
21331;DHT22;10824;51.632;4.950;2023-03-23T04:27:27;12.40;91.40
21331;DHT22;10824;51.632;4.950;2023-03-23T04:29:56;12.40;91.80
21331;DHT22;10824;51.632;4.950;2023-03-23T04:32:50;12.40;91.20
21331;DHT22;10824;51.632;4.950;2023-03-23T04:35:23;12.40;91.00
21331;DHT22;10824;51.632;4.950;2023-03-23T04:38:04;12.40;91.40
21331;DHT22;10824;51.632;4.950;2023-03-23T04:40:30;12.30;92.40
21331;DHT22;10824;51.632;4.950;2023-03-23T04:43:07;12.30;92.20
21331;DHT22;10824;51.632;4.950;2023-03-23T04:45:55;12.30;92.00
21331;DHT22;10824;51.632;4.950;2023-03-23T04:48:28;12.30;92.40
21331;DHT22;10824;51.632;4.950;2023-03-23T04:51:06;12.30;91.30
21331;DHT22;10824;51.632;4.950;2023-03-23T04:53:33;12.30;92.10
21331;DHT22;10824;51.632;4.950;2023-03-23T04:56:00;12.30;91.80
21331;DHT22;10824;51.632;4.950;2023-03-23T04:58:35;12.30;92.70
21331;DHT22;10824;51.632;4.950;2023-03-23T05:01:25;12.20;92.40
21331;DHT22;10824;51.632;4.950;2023-03-23T05:04:15;12.30;92.20
21331;DHT22;10824;51.632;4.950;2023-03-23T05:06:47;12.20;93.20
21331;DHT22;10824;51.632;4.950;2023-03-23T05:09:21;12.10;93.60
21331;DHT22;10824;51.632;4.950;2023-03-23T05:11:48;12.20;94.60
21331;DHT22;10824;51.632;4.950;2023-03-23T05:14:14;12.20;93.40
21331;DHT22;10824;51.632;4.950;2023-03-23T05:16:44;12.20;93.40
21331;DHT22;10824;51.632;4.950;2023-03-23T05:19:15;12.20;93.50
21331;DHT22;10824;51.632;4.950;2023-03-23T05:21:41;12.20;94.20
21331;DHT22;10824;51.632;4.950;2023-03-23T05:24:08;12.20;94.10
21331;DHT22;10824;51.632;4.950;2023-03-23T05:26:33;12.20;94.70
21331;DHT22;10824;51.632;4.950;2023-03-23T05:29:06;12.10;95.40
21331;DHT22;10824;51.632;4.950;2023-03-23T05:31:48;12.10;95.80
21331;DHT22;10824;51.632;4.950;2023-03-23T05:34:14;12.20;95.40
21331;DHT22;10824;51.632;4.950;2023-03-23T05:36:50;12.10;95.60
21331;DHT22;10824;51.632;4.950;2023-03-23T05:39:54;12.10;96.30
21331;DHT22;10824;51.632;4.950;2023-03-23T05:42:47;12.10;95.80
21331;DHT22;10824;51.632;4.950;2023-03-23T05:45:19;12.10;95.90
21331;DHT22;10824;51.632;4.950;2023-03-23T05:47:47;12.10;95.70
21331;DHT22;10824;51.632;4.950;2023-03-23T05:50:18;12.20;94.80
21331;DHT22;10824;51.632;4.950;2023-03-23T05:52:44;12.10;95.50
21331;DHT22;10824;51.632;4.950;2023-03-23T05:55:12;12.20;95.50
21331;DHT22;10824;51.632;4.950;2023-03-23T05:57:42;12.10;95.50
21331;DHT22;10824;51.632;4.950;2023-03-23T06:00:25;12.10;97.40
21331;DHT22;10824;51.632;4.950;2023-03-23T06:03:03;12.10;96.10
21331;DHT22;10824;51.632;4.950;2023-03-23T06:05:36;12.10;96.00
21331;DHT22;10824;51.632;4.950;2023-03-23T06:08:02;12.10;96.50
21331;DHT22;10824;51.632;4.950;2023-03-23T06:10:29;12.10;96.40
21331;DHT22;10824;51.632;4.950;2023-03-23T06:13:01;12.10;98.40
21331;DHT22;10824;51.632;4.950;2023-03-23T06:15:34;12.10;99.70
21331;DHT22;10824;51.632;4.950;2023-03-23T06:18:17;12.00;99.90
21331;DHT22;10824;51.632;4.950;2023-03-23T06:21:18;12.00;99.90
21331;DHT22;10824;51.632;4.950;2023-03-23T06:23:57;11.90;99.90
21331;DHT22;10824;51.632;4.950;2023-03-23T06:26:34;11.80;99.90
21331;DHT22;10824;51.632;4.950;2023-03-23T06:29:05;11.80;99.90
21331;DHT22;10824;51.632;4.950;2023-03-23T06:31:48;11.70;99.90
21331;DHT22;10824;51.632;4.950;2023-03-23T06:34:15;11.60;99.90
21331;DHT22;10824;51.632;4.950;2023-03-23T06:37:03;11.60;99.90
21331;DHT22;10824;51.632;4.950;2023-03-23T06:39:49;11.50;99.90
21331;DHT22;10824;51.632;4.950;2023-03-23T06:42:21;11.40;99.90
21331;DHT22;10824;51.632;4.950;2023-03-23T06:44:53;11.40;99.90
21331;DHT22;10824;51.632;4.950;2023-03-23T06:47:23;11.40;99.90
21331;DHT22;10824;51.632;4.950;2023-03-23T06:49:49;11.30;99.90
21331;DHT22;10824;51.632;4.950;2023-03-23T06:52:25;11.30;99.90
21331;DHT22;10824;51.632;4.950;2023-03-23T06:54:52;11.30;99.90
21331;DHT22;10824;51.632;4.950;2023-03-23T06:57:20;11.30;99.90
21331;DHT22;10824;51.632;4.950;2023-03-23T06:59:47;11.30;99.90
21331;DHT22;10824;51.632;4.950;2023-03-23T07:02:14;11.20;99.90
21331;DHT22;10824;51.632;4.950;2023-03-23T07:04:42;11.20;99.90
21331;DHT22;10824;51.632;4.950;2023-03-23T07:07:14;11.20;99.90
21331;DHT22;10824;51.632;4.950;2023-03-23T07:10:10;11.20;99.90
21331;DHT22;10824;51.632;4.950;2023-03-23T07:12:37;11.20;99.90
21331;DHT22;10824;51.632;4.950;2023-03-23T07:15:06;11.20;99.90
21331;DHT22;10824;51.632;4.950;2023-03-23T07:17:47;11.20;99.90
21331;DHT22;10824;51.632;4.950;2023-03-23T07:20:22;11.20;99.90
21331;DHT22;10824;51.632;4.950;2023-03-23T07:22:49;11.20;99.90
21331;DHT22;10824;51.632;4.950;2023-03-23T07:25:31;11.20;99.90
21331;DHT22;10824;51.632;4.950;2023-03-23T07:28:00;11.10;99.90
21331;DHT22;10824;51.632;4.950;2023-03-23T07:30:27;11.10;99.90
21331;DHT22;10824;51.632;4.950;2023-03-23T07:32:55;11.10;99.90
21331;DHT22;10824;51.632;4.950;2023-03-23T07:35:23;11.00;99.90
21331;DHT22;10824;51.632;4.950;2023-03-23T07:38:03;11.00;99.90
21331;DHT22;10824;51.632;4.950;2023-03-23T07:40:30;11.00;99.90
21331;DHT22;10824;51.632;4.950;2023-03-23T07:43:03;10.90;99.90
21331;DHT22;10824;51.632;4.950;2023-03-23T07:45:52;10.90;99.90
21331;DHT22;10824;51.632;4.950;2023-03-23T07:48:20;10.90;99.90
21331;DHT22;10824;51.632;4.950;2023-03-23T07:50:46;10.90;99.90
21331;DHT22;10824;51.632;4.950;2023-03-23T07:53:17;11.00;99.90
21331;DHT22;10824;51.632;4.950;2023-03-23T07:55:49;11.00;99.90
21331;DHT22;10824;51.632;4.950;2023-03-23T07:58:38;11.00;99.90
21331;DHT22;10824;51.632;4.950;2023-03-23T08:01:04;11.00;99.90
21331;DHT22;10824;51.632;4.950;2023-03-23T08:03:33;11.00;99.90
21331;DHT22;10824;51.632;4.950;2023-03-23T08:06:20;11.00;99.90
21331;DHT22;10824;51.632;4.950;2023-03-23T08:09:16;10.90;99.90
21331;DHT22;10824;51.632;4.950;2023-03-23T08:11:57;10.90;99.90
21331;DHT22;10824;51.632;4.950;2023-03-23T08:14:41;10.90;99.90
21331;DHT22;10824;51.632;4.950;2023-03-23T08:17:30;10.90;99.90
21331;DHT22;10824;51.632;4.950;2023-03-23T08:20:16;10.90;99.90
21331;DHT22;10824;51.632;4.950;2023-03-23T08:23:01;10.90;99.90
21331;DHT22;10824;51.632;4.950;2023-03-23T08:25:51;11.00;99.90
21331;DHT22;10824;51.632;4.950;2023-03-23T08:28:40;11.00;99.90
21331;DHT22;10824;51.632;4.950;2023-03-23T08:31:45;11.00;99.90
21331;DHT22;10824;51.632;4.950;2023-03-23T08:34:43;11.00;99.90
21331;DHT22;10824;51.632;4.950;2023-03-23T08:37:23;11.10;99.90
21331;DHT22;10824;51.632;4.950;2023-03-23T08:40:00;11.10;99.90
21331;DHT22;10824;51.632;4.950;2023-03-23T08:42:43;11.10;99.90
21331;DHT22;10824;51.632;4.950;2023-03-23T08:45:28;11.20;99.90
21331;DHT22;10824;51.632;4.950;2023-03-23T08:48:21;11.20;99.90
21331;DHT22;10824;51.632;4.950;2023-03-23T08:51:14;11.30;99.90
21331;DHT22;10824;51.632;4.950;2023-03-23T08:54:13;11.20;99.90
21331;DHT22;10824;51.632;4.950;2023-03-23T08:57:02;11.30;99.90
21331;DHT22;10824;51.632;4.950;2023-03-23T08:59:55;11.30;99.90
21331;DHT22;10824;51.632;4.950;2023-03-23T09:03:01;11.30;99.90
21331;DHT22;10824;51.632;4.950;2023-03-23T09:05:37;11.40;99.90
21331;DHT22;10824;51.632;4.950;2023-03-23T09:08:26;11.60;99.90
21331;DHT22;10824;51.632;4.950;2023-03-23T09:10:58;11.90;99.90
21331;DHT22;10824;51.632;4.950;2023-03-23T09:13:24;12.00;99.90
21331;DHT22;10824;51.632;4.950;2023-03-23T09:15:50;12.00;99.90
21331;DHT22;10824;51.632;4.950;2023-03-23T09:18:18;12.10;99.90
21331;DHT22;10824;51.632;4.950;2023-03-23T09:20:44;12.30;99.90
21331;DHT22;10824;51.632;4.950;2023-03-23T09:23:10;12.30;99.90
21331;DHT22;10824;51.632;4.950;2023-03-23T09:25:38;12.30;99.90
21331;DHT22;10824;51.632;4.950;2023-03-23T09:28:05;12.40;99.90
21331;DHT22;10824;51.632;4.950;2023-03-23T09:30:32;12.50;99.40
21331;DHT22;10824;51.632;4.950;2023-03-23T09:33:03;12.50;97.80
21331;DHT22;10824;51.632;4.950;2023-03-23T09:35:33;12.70;97.30
21331;DHT22;10824;51.632;4.950;2023-03-23T09:38:02;12.90;96.20
21331;DHT22;10824;51.632;4.950;2023-03-23T09:48:46;13.00;91.60
21331;DHT22;10824;51.632;4.950;2023-03-23T09:54:26;13.10;92.00
21331;DHT22;10824;51.632;4.950;2023-03-23T09:56:53;12.90;91.50
21331;DHT22;10824;51.632;4.950;2023-03-23T09:59:23;13.10;89.40
21331;DHT22;10824;51.632;4.950;2023-03-23T10:01:53;13.20;87.40
21331;DHT22;10824;51.632;4.950;2023-03-23T10:07:18;13.40;88.40
21331;DHT22;10824;51.632;4.950;2023-03-23T10:09:48;13.50;89.80
21331;DHT22;10824;51.632;4.950;2023-03-23T10:12:42;13.50;82.70
21331;DHT22;10824;51.632;4.950;2023-03-23T10:18:12;13.50;81.90
21331;DHT22;10824;51.632;4.950;2023-03-23T10:20:53;13.70;84.10
21331;DHT22;10824;51.632;4.950;2023-03-23T10:26:00;14.00;76.50
21331;DHT22;10824;51.632;4.950;2023-03-23T10:28:51;13.90;69.90
21331;DHT22;10824;51.632;4.950;2023-03-23T10:31:23;14.10;73.30
21331;DHT22;10824;51.632;4.950;2023-03-23T10:33:52;14.10;71.10
21331;DHT22;10824;51.632;4.950;2023-03-23T10:36:24;13.90;72.70
21331;DHT22;10824;51.632;4.950;2023-03-23T10:39:10;13.90;75.00
21331;DHT22;10824;51.632;4.950;2023-03-23T10:41:37;14.00;70.10
21331;DHT22;10824;51.632;4.950;2023-03-23T10:44:14;14.00;70.20
21331;DHT22;10824;51.632;4.950;2023-03-23T10:49:39;13.80;70.90
21331;DHT22;10824;51.632;4.950;2023-03-23T10:57:39;13.80;73.20
21331;DHT22;10824;51.632;4.950;2023-03-23T11:02:43;13.70;71.60
21331;DHT22;10824;51.632;4.950;2023-03-23T11:05:17;13.70;72.30
21331;DHT22;10824;51.632;4.950;2023-03-23T11:07:57;13.70;69.10
21331;DHT22;10824;51.632;4.950;2023-03-23T11:10:26;13.70;69.80
21331;DHT22;10824;51.632;4.950;2023-03-23T11:12:56;13.80;72.40
21331;DHT22;10824;51.632;4.950;2023-03-23T11:15:34;14.20;73.10
21331;DHT22;10824;51.632;4.950;2023-03-23T11:18:03;14.40;68.50
21331;DHT22;10824;51.632;4.950;2023-03-23T11:20:36;14.40;64.20
21331;DHT22;10824;51.632;4.950;2023-03-23T11:23:13;14.30;64.20
21331;DHT22;10824;51.632;4.950;2023-03-23T11:28:20;14.70;57.30
21331;DHT22;10824;51.632;4.950;2023-03-23T11:30:46;15.00;51.00
21331;DHT22;10824;51.632;4.950;2023-03-23T11:33:13;15.10;47.40
21331;DHT22;10824;51.632;4.950;2023-03-23T11:35:44;15.20;44.90
21331;DHT22;10824;51.632;4.950;2023-03-23T11:38:21;15.20;37.60
21331;DHT22;10824;51.632;4.950;2023-03-23T11:40:50;15.30;36.00
21331;DHT22;10824;51.632;4.950;2023-03-23T11:43:24;15.10;37.60
21331;DHT22;10824;51.632;4.950;2023-03-23T11:46:32;14.90;38.20
21331;DHT22;10824;51.632;4.950;2023-03-23T11:49:05;14.80;37.70
21331;DHT22;10824;51.632;4.950;2023-03-23T11:51:50;15.00;39.40
21331;DHT22;10824;51.632;4.950;2023-03-23T11:54:39;15.20;38.80
21331;DHT22;10824;51.632;4.950;2023-03-23T11:57:10;15.00;36.30
21331;DHT22;10824;51.632;4.950;2023-03-23T11:59:37;14.90;39.40
21331;DHT22;10824;51.632;4.950;2023-03-23T12:10:23;15.10;41.70
21331;DHT22;10824;51.632;4.950;2023-03-23T12:13:05;15.20;40.00
21331;DHT22;10824;51.632;4.950;2023-03-23T12:15:58;15.00;37.10
21331;DHT22;10824;51.632;4.950;2023-03-23T12:23:55;14.00;71.70
21331;DHT22;10824;51.632;4.950;2023-03-23T12:26:54;13.70;85.20
21331;DHT22;10824;51.632;4.950;2023-03-23T12:48:00;15.70;34.30
21331;DHT22;10824;51.632;4.950;2023-03-23T12:50:45;15.60;28.20
21331;DHT22;10824;51.632;4.950;2023-03-23T12:53:20;15.50;31.30
21331;DHT22;10824;51.632;4.950;2023-03-23T12:58:44;15.10;32.20
21331;DHT22;10824;51.632;4.950;2023-03-23T13:03:57;15.20;34.50
21331;DHT22;10824;51.632;4.950;2023-03-23T13:06:38;15.10;36.10
21331;DHT22;10824;51.632;4.950;2023-03-23T13:09:14;15.00;36.80
21331;DHT22;10824;51.632;4.950;2023-03-23T13:11:43;15.00;38.40
21331;DHT22;10824;51.632;4.950;2023-03-23T13:17:05;14.80;37.40
21331;DHT22;10824;51.632;4.950;2023-03-23T13:22:59;14.50;33.60
21331;DHT22;10824;51.632;4.950;2023-03-23T13:28:00;14.30;39.80
21331;DHT22;10824;51.632;4.950;2023-03-23T13:30:27;14.10;39.80
21331;DHT22;10824;51.632;4.950;2023-03-23T13:33:05;14.10;42.10
21331;DHT22;10824;51.632;4.950;2023-03-23T13:35:36;14.20;43.50
21331;DHT22;10824;51.632;4.950;2023-03-23T13:38:23;14.30;41.80
21331;DHT22;10824;51.632;4.950;2023-03-23T13:40:52;14.30;39.50
21331;DHT22;10824;51.632;4.950;2023-03-23T13:43:33;14.40;39.70
21331;DHT22;10824;51.632;4.950;2023-03-23T13:46:25;14.50;38.40
21331;DHT22;10824;51.632;4.950;2023-03-23T13:49:13;14.70;37.30
21331;DHT22;10824;51.632;4.950;2023-03-23T13:59:35;15.50;35.00
21331;DHT22;10824;51.632;4.950;2023-03-23T14:08:11;15.60;28.50
21331;DHT22;10824;51.632;4.950;2023-03-23T14:10:48;15.80;28.90
21331;DHT22;10824;51.632;4.950;2023-03-23T14:13:41;15.90;28.80
21331;DHT22;10824;51.632;4.950;2023-03-23T14:16:22;16.10;30.40
21331;DHT22;10824;51.632;4.950;2023-03-23T14:19:01;16.40;30.90
21331;DHT22;10824;51.632;4.950;2023-03-23T14:21:35;16.60;31.20
21331;DHT22;10824;51.632;4.950;2023-03-23T14:24:12;16.60;31.10
21331;DHT22;10824;51.632;4.950;2023-03-23T14:26:41;16.50;28.50
21331;DHT22;10824;51.632;4.950;2023-03-23T14:29:10;16.30;29.20
21331;DHT22;10824;51.632;4.950;2023-03-23T14:31:37;16.40;30.50
21331;DHT22;10824;51.632;4.950;2023-03-23T14:34:12;16.60;28.70
21331;DHT22;10824;51.632;4.950;2023-03-23T14:36:39;16.60;28.30
21331;DHT22;10824;51.632;4.950;2023-03-23T14:41:38;16.60;29.90
21331;DHT22;10824;51.632;4.950;2023-03-23T14:44:07;16.70;30.60
21331;DHT22;10824;51.632;4.950;2023-03-23T14:46:34;16.70;30.30
21331;DHT22;10824;51.632;4.950;2023-03-23T14:49:03;16.60;29.60
21331;DHT22;10824;51.632;4.950;2023-03-23T14:51:29;16.70;27.80
21331;DHT22;10824;51.632;4.950;2023-03-23T14:53:58;16.60;28.40
21331;DHT22;10824;51.632;4.950;2023-03-23T14:56:35;16.50;30.50
21331;DHT22;10824;51.632;4.950;2023-03-23T14:59:06;16.30;30.60
21331;DHT22;10824;51.632;4.950;2023-03-23T15:01:36;16.20;31.10
21331;DHT22;10824;51.632;4.950;2023-03-23T15:06:38;16.00;31.50
21331;DHT22;10824;51.632;4.950;2023-03-23T15:09:09;15.90;32.10
21331;DHT22;10824;51.632;4.950;2023-03-23T15:11:38;15.80;31.20
21331;DHT22;10824;51.632;4.950;2023-03-23T15:14:22;15.80;31.80
21331;DHT22;10824;51.632;4.950;2023-03-23T15:16:54;15.90;27.10
21331;DHT22;10824;51.632;4.950;2023-03-23T15:19:40;15.90;25.50
21331;DHT22;10824;51.632;4.950;2023-03-23T15:24:42;16.00;25.70
21331;DHT22;10824;51.632;4.950;2023-03-23T15:27:22;16.20;26.90
21331;DHT22;10824;51.632;4.950;2023-03-23T15:29:57;16.30;27.70
21331;DHT22;10824;51.632;4.950;2023-03-23T15:34:51;16.40;27.20
21331;DHT22;10824;51.632;4.950;2023-03-23T15:37:27;16.30;29.60
21331;DHT22;10824;51.632;4.950;2023-03-23T15:39:55;16.30;31.10
21331;DHT22;10824;51.632;4.950;2023-03-23T15:42:26;16.20;30.70
21331;DHT22;10824;51.632;4.950;2023-03-23T15:47:57;16.00;31.60
21331;DHT22;10824;51.632;4.950;2023-03-23T15:50:40;15.80;30.50
21331;DHT22;10824;51.632;4.950;2023-03-23T15:53:39;15.60;29.80
21331;DHT22;10824;51.632;4.950;2023-03-23T15:56:07;15.60;30.10
21331;DHT22;10824;51.632;4.950;2023-03-23T15:58:35;15.70;30.40
21331;DHT22;10824;51.632;4.950;2023-03-23T16:01:06;15.80;31.00
21331;DHT22;10824;51.632;4.950;2023-03-23T16:03:39;15.80;26.00
21331;DHT22;10824;51.632;4.950;2023-03-23T16:06:13;15.90;27.30
21331;DHT22;10824;51.632;4.950;2023-03-23T16:08:52;15.80;26.20
21331;DHT22;10824;51.632;4.950;2023-03-23T16:11:22;15.80;28.20
21331;DHT22;10824;51.632;4.950;2023-03-23T16:13:50;15.70;27.20
21331;DHT22;10824;51.632;4.950;2023-03-23T16:16:22;15.60;28.80
21331;DHT22;10824;51.632;4.950;2023-03-23T16:18:50;15.70;30.00
21331;DHT22;10824;51.632;4.950;2023-03-23T16:21:18;15.60;31.10
21331;DHT22;10824;51.632;4.950;2023-03-23T16:23:45;15.50;33.10
21331;DHT22;10824;51.632;4.950;2023-03-23T16:26:13;15.30;34.80
21331;DHT22;10824;51.632;4.950;2023-03-23T16:28:41;15.30;35.80
21331;DHT22;10824;51.632;4.950;2023-03-23T16:31:09;15.20;35.60
21331;DHT22;10824;51.632;4.950;2023-03-23T16:33:36;15.20;37.60
21331;DHT22;10824;51.632;4.950;2023-03-23T16:36:04;15.10;38.30
21331;DHT22;10824;51.632;4.950;2023-03-23T16:38:31;15.00;38.60
21331;DHT22;10824;51.632;4.950;2023-03-23T16:41:15;15.00;39.50
21331;DHT22;10824;51.632;4.950;2023-03-23T16:43:42;15.00;40.50
21331;DHT22;10824;51.632;4.950;2023-03-23T16:46:10;15.10;40.70
21331;DHT22;10824;51.632;4.950;2023-03-23T16:48:38;15.00;40.40
21331;DHT22;10824;51.632;4.950;2023-03-23T16:51:06;15.10;42.10
21331;DHT22;10824;51.632;4.950;2023-03-23T16:53:34;15.00;42.20
21331;DHT22;10824;51.632;4.950;2023-03-23T16:56:03;15.00;43.00
21331;DHT22;10824;51.632;4.950;2023-03-23T16:58:30;14.90;44.30
21331;DHT22;10824;51.632;4.950;2023-03-23T17:00:57;14.90;44.90
21331;DHT22;10824;51.632;4.950;2023-03-23T17:03:24;14.80;45.50
21331;DHT22;10824;51.632;4.950;2023-03-23T17:05:53;14.80;46.40
21331;DHT22;10824;51.632;4.950;2023-03-23T17:08:20;14.70;47.40
21331;DHT22;10824;51.632;4.950;2023-03-23T17:10:47;14.70;48.20
21331;DHT22;10824;51.632;4.950;2023-03-23T17:13:15;14.70;49.00
21331;DHT22;10824;51.632;4.950;2023-03-23T17:15:43;14.70;49.90
21331;DHT22;10824;51.632;4.950;2023-03-23T17:18:13;14.70;50.70
21331;DHT22;10824;51.632;4.950;2023-03-23T17:20:44;14.70;51.70
21331;DHT22;10824;51.632;4.950;2023-03-23T17:23:11;14.60;52.20
21331;DHT22;10824;51.632;4.950;2023-03-23T17:25:38;14.60;50.90
21331;DHT22;10824;51.632;4.950;2023-03-23T17:28:06;14.60;51.20
21331;DHT22;10824;51.632;4.950;2023-03-23T17:30:33;14.50;50.10
21331;DHT22;10824;51.632;4.950;2023-03-23T17:33:01;14.50;50.10
21331;DHT22;10824;51.632;4.950;2023-03-23T17:35:28;14.50;50.10
21331;DHT22;10824;51.632;4.950;2023-03-23T17:37:55;14.40;49.90
21331;DHT22;10824;51.632;4.950;2023-03-23T17:40:23;14.40;50.30
21331;DHT22;10824;51.632;4.950;2023-03-23T17:42:50;14.40;51.00
21331;DHT22;10824;51.632;4.950;2023-03-23T17:45:17;14.30;51.80
21331;DHT22;10824;51.632;4.950;2023-03-23T17:47:44;14.30;52.70
21331;DHT22;10824;51.632;4.950;2023-03-23T17:50:12;14.30;53.80
21331;DHT22;10824;51.632;4.950;2023-03-23T17:52:40;14.30;54.70
21331;DHT22;10824;51.632;4.950;2023-03-23T17:55:09;14.20;56.00
21331;DHT22;10824;51.632;4.950;2023-03-23T17:57:37;14.30;56.90
21331;DHT22;10824;51.632;4.950;2023-03-23T18:00:04;14.20;58.30
21331;DHT22;10824;51.632;4.950;2023-03-23T18:02:35;14.20;59.60
21331;DHT22;10824;51.632;4.950;2023-03-23T18:05:03;14.20;60.20
21331;DHT22;10824;51.632;4.950;2023-03-23T18:07:32;14.10;60.60
21331;DHT22;10824;51.632;4.950;2023-03-23T18:09:59;14.20;60.40